Airfield :
LOGIN :

Register | Disclaimer

   EN    FR    IT 

 










Legend :    VFR   Marginal VFR   IFR   Intensive IFR   Very Intensive IFR
Visi :
Ceiling :
>= 8 km
>= 3000ft
5 to 8 km
1000 to 3000 ft
1500m to 5 km
500 to 1000 ft
800 to 1500m
200 to 500 ft
< 800m
< 200 ft
Symbols :   Thunderstorms  Fog  Heavy snow  Heavy precipitations  Wind > 20 kt
SIGMETs :     Misc.  Thunderstorms  Icing  Turbulence  Mountain Waves  Volcanic Ashes






- Airport Elevation : 162 ft
- IATA code : BOD


LFBD - Bordeaux / Merignac

CURRENT METAR :
  • 260430Z AUTO 22004KT 6000 -DZ SCT012 BKN022 OVC028 09/08 Q1018 TEMPO 0800 BCFG

EXPIRED METARs :
  • 260400Z AUTO VRB02KT 5000 -RA BR FEW012 BKN033 OVC043 08/08 Q1017 TEMPO 0800 BCFG
  • 260330Z AUTO 22003KT 4700 -RA BR OVC035 08/08 Q1017 TEMPO 0800 BCFG
  • 260300Z AUTO 23001KT 5000 -DZ BR OVC039 08/08 Q1017 TEMPO 0800 BCFG
  • 260230Z AUTO 00000KT 5000 -RADZ BR BKN044 OVC056 08/08 Q1017 TEMPO 0800 BCFG
  • 260200Z AUTO 15002KT 6000 BKN048/// BKN056/// OVC066/// ///TCU 08/08 Q1017 TEMPO 0800 BCFG BKN030 OVC060

TAF AMD TAF LFBD
Valid from the 26 at 00:00 until the 27 at 06:00 UTC


260005Z 2600/2706 VRB03KT 8000 NSC TX13/2614Z TN05/2608Z
TEMPO 2600/2604 -RA BKN030 OVC060
TEMPO 2600/2610 3000 BR
PROB40
TEMPO 2600/2609 0800 BCFG
BECMG 2610/2612 23010KT 9999 SCT030
BECMG 2618/2620 CAVOK
ATIS : +33 5 57 92 81 04



MET'MAP, your aeronautical weather chart ! - Copyright ORBIFLY December 2007 - Disclaimer

ORBIFLY MET'MAP TEAM :

Programming & Development : Alexandra Zaïnal
Concept & original design : Baudouin d'Aumeries
Assistance for programming : Marc-Olivier Méhu
Technical & hardware support : Manuel Goepfert

Contact : metmap@orbifly.com




SOURCES & CREDITS :

   NOAA